Osceola Municipal, IA

1:12 PM CDT on May 27, 2017 (GMT -0500)
Osceola Municipal

Weather History for KI75 - February, 2013

Change the Weather History Date:

Sunday, February 17, 2013

  Actual Average (KCNC) Record (KCNC)
Temperature  
Mean Temperature 35 °F -  
Max Temperature 47 °F 37 °F 73 °F (2017)
Min Temperature 23 °F 16 °F -18 °F (1978)
Degree Days  
Heating Degree Days 30    
Moisture  
Dew Point 23 °F    
Average Humidity 63    
Maximum Humidity 85    
Minimum Humidity 42    
Precipitation  
Precipitation 0.00 in - - ()
Sea Level Pressure  
Sea Level Pressure 29.90 in    
Wind  
Wind Speed 9 mph (SE)    
Max Wind Speed 21 mph    
Max Gust Speed 25 mph    
Visibility 10 miles    
Events      
Averages and records for this station are not official NWS values.
T = Trace of Precipitation, MM = Missing Value Source: NWS Daily Summary

Daily Weather History Graph

Daily Weather History Graph

Search for Another Location

Airport or City:

Trip Planner

Search our weather history database for the weather conditions in past years. The results will help you decide how hot, cold, wet, or windy it might be!

Date:

Astronomy

Feb. 17, 2013 Rise Set
Actual Time 7:06 AM CST 5:51 PM CST
Civil Twilight 6:38 AM CST 6:20 PM CST
Nautical Twilight 6:05 AM CST 6:52 PM CST
Astronomical Twilight 5:34 AM CST 7:24 PM CST
Moon 10:55 AM CST (2/17) 12:52 AM CST (2/17)
Length of Visible Light 11h 41m
Length of Day
10h 45m
Waxing Crescent, 49% of the Moon is Illuminated
Feb 17
Waxing Crescent
Feb 17
First Quarter
Feb 25
Full
Mar 4
Last Quarter
Mar 11
New

Hourly Weather History & Observations

Time (CST) Temp. Windchill Dew Point Humidity Pressure Visibility Wind Dir Wind Speed Gust Speed Precip Events Conditions
12:15 AM 28.6 °F 24.8 °F 20.1 °F 71% 30.07 in 10.0 mi SE 3.5 mph - N/A   Overcast
12:35 AM 28.4 °F 24.6 °F 20.1 °F 71% 30.07 in 10.0 mi SE 3.5 mph - N/A   Overcast
12:55 AM 28.4 °F 23.3 °F 20.3 °F 72% 30.07 in 10.0 mi SE 4.6 mph - N/A   Overcast
1:15 AM 28.4 °F 23.3 °F 19.6 °F 70% 30.06 in 10.0 mi SSE 4.6 mph - N/A   Overcast
1:35 AM 28.4 °F 23.3 °F 19.8 °F 70% 30.06 in 10.0 mi SSE 4.6 mph - N/A   Overcast
1:55 AM 28.8 °F 21.7 °F 20.3 °F 71% 30.06 in 10.0 mi SSE 6.9 mph - N/A   Overcast
2:15 AM 28.8 °F 21.7 °F 20.5 °F 71% 30.06 in 10.0 mi SSE 6.9 mph - N/A   Overcast
2:35 AM 28.9 °F 22.8 °F 20.3 °F 70% 30.06 in 10.0 mi SSE 5.8 mph - N/A   Overcast
2:55 AM 29.1 °F 22.1 °F 20.5 °F 70% 30.06 in 10.0 mi SE 6.9 mph - N/A   Overcast
3:15 AM 29.1 °F 23.0 °F 20.5 °F 70% 30.06 in 10.0 mi SSE 5.8 mph - N/A   Overcast
3:35 AM 28.9 °F 21.9 °F 20.8 °F 72% 30.05 in 10.0 mi SE 6.9 mph - N/A   Overcast
3:55 AM 28.4 °F 22.2 °F 21.2 °F 74% 30.04 in 10.0 mi SSE 5.8 mph - N/A   Overcast
4:15 AM 27.3 °F 19.9 °F 20.3 °F 75% 30.04 in 10.0 mi SE 6.9 mph - N/A   Mostly Cloudy
4:35 AM 26.1 °F 19.4 °F 20.3 °F 79% 30.03 in 10.0 mi ESE 5.8 mph - N/A   Scattered Clouds
4:55 AM 25.5 °F 19.9 °F 20.1 °F 80% 30.03 in 10.0 mi ESE 4.6 mph - N/A   Clear
5:15 AM 24.8 °F 19.1 °F 19.6 °F 81% 30.03 in 10.0 mi ESE 4.6 mph - N/A   Clear
5:35 AM 25.3 °F 18.5 °F 20.3 °F 81% 30.03 in 10.0 mi ESE 5.8 mph - N/A   Mostly Cloudy
5:55 AM 25.3 °F 18.5 °F 20.3 °F 81% 30.03 in 10.0 mi ESE 5.8 mph - N/A   Mostly Cloudy
6:15 AM 25.2 °F 18.3 °F 20.3 °F 82% 30.03 in 10.0 mi ESE 5.8 mph - N/A   Clear
6:35 AM 24.4 °F 17.5 °F 20.3 °F 84% 30.02 in 10.0 mi SE 5.8 mph - N/A   Clear
6:55 AM 23.9 °F 15.8 °F 19.9 °F 85% 30.01 in 10.0 mi ESE 6.9 mph - N/A   Clear
7:15 AM 23.9 °F 16.8 °F 20.1 °F 85% 30.01 in 10.0 mi SE 5.8 mph - N/A   Clear
7:35 AM 25.2 °F 16.5 °F 21.0 °F 84% 30.01 in 10.0 mi SE 8.1 mph - N/A   Clear
7:55 AM 26.2 °F 16.4 °F 21.4 °F 82% 30.01 in 10.0 mi SE 10.4 mph - N/A   Clear
8:15 AM 27.0 °F 17.3 °F 21.9 °F 81% 30.01 in 10.0 mi SE 10.4 mph - N/A   Clear
8:35 AM 29.1 °F 20.0 °F 22.6 °F 77% 30.01 in 10.0 mi SE 10.4 mph - N/A   Clear
8:55 AM 30.2 °F 19.8 °F 22.3 °F 72% 30.01 in 10.0 mi SE 13.8 mph 18.4 mph N/A   Clear
9:15 AM 32.0 °F 22.1 °F 22.5 °F 68% 30.00 in 10.0 mi SSE 13.8 mph - N/A   Clear
9:35 AM 32.5 °F 22.3 °F 22.1 °F 65% 30.00 in 10.0 mi SE 15.0 mph - N/A   Clear
9:55 AM 33.8 °F 24.3 °F 21.7 °F 61% 29.99 in 10.0 mi SSE 13.8 mph - N/A   Clear
10:15 AM 34.9 °F 25.3 °F 21.7 °F 59% 29.99 in 10.0 mi SE 15.0 mph - N/A   Clear
10:35 AM 36.5 °F 27.0 °F 22.3 °F 56% 29.98 in 10.0 mi SE 16.1 mph - N/A   Clear
10:55 AM 37.4 °F 28.5 °F 22.1 °F 54% 29.98 in 10.0 mi SSE 15.0 mph - N/A   Clear
11:15 AM 38.3 °F 30.9 °F 21.7 °F 51% 29.96 in 10.0 mi SSE 11.5 mph - N/A   Clear
11:35 AM 39.9 °F 31.4 °F 22.5 °F 50% 29.94 in 10.0 mi SE 16.1 mph - N/A   Clear
11:55 AM 40.3 °F 31.6 °F 22.5 °F 49% 29.93 in 10.0 mi SSE 17.3 mph - N/A   Clear
12:15 PM 42.1 °F 34.5 °F 23.2 °F 47% 29.92 in 10.0 mi SE 15.0 mph 21.9 mph N/A   Clear
12:55 PM 43.7 °F 36.3 °F 24.1 °F 46% 29.89 in 10.0 mi SE 16.1 mph 23.0 mph N/A   Clear
1:15 PM 44.1 °F 36.2 °F 23.5 °F 44% 29.88 in 10.0 mi SE 18.4 mph 21.9 mph N/A   Clear
1:35 PM 45.3 °F 37.6 °F 24.4 °F 44% 29.87 in 10.0 mi SE 19.6 mph 24.2 mph N/A   Clear
1:55 PM 45.7 °F 37.8 °F 24.6 °F 44% 29.86 in 10.0 mi SE 20.7 mph 24.2 mph N/A   Clear
2:15 PM 46.4 °F 38.7 °F 25.0 °F 43% 29.85 in 10.0 mi SSE 20.7 mph 24.2 mph N/A   Clear
2:35 PM 47.3 °F - 26.1 °F 44% 29.83 in 10.0 mi SSE 19.6 mph 25.3 mph N/A   Clear
2:55 PM 46.9 °F - 25.3 °F 43% 29.82 in 10.0 mi SE 18.4 mph 25.3 mph N/A   Clear
3:15 PM 47.5 °F - 25.9 °F 43% 29.81 in 10.0 mi SE 19.6 mph 23.0 mph N/A   Clear
3:35 PM 47.7 °F - 25.7 °F 42% 29.80 in 10.0 mi SSE 16.1 mph 20.7 mph N/A   Clear
3:55 PM 46.9 °F - 26.1 °F 44% 29.79 in 10.0 mi SE 18.4 mph 24.2 mph N/A   Clear
4:15 PM 46.2 °F 38.7 °F 26.6 °F 46% 29.78 in 10.0 mi SE 19.6 mph 23.0 mph N/A   Clear
4:35 PM 45.9 °F 39.4 °F 26.4 °F 47% 29.78 in 10.0 mi SE 15.0 mph 21.9 mph N/A   Clear
4:55 PM 45.0 °F 37.9 °F 26.6 °F 49% 29.78 in 10.0 mi SE 16.1 mph 20.7 mph N/A   Clear
5:15 PM 44.6 °F 37.8 °F 26.6 °F 49% 29.77 in 10.0 mi SE 15.0 mph 18.4 mph N/A   Clear
5:35 PM 43.7 °F 36.3 °F 26.2 °F 50% 29.77 in 10.0 mi SE 16.1 mph - N/A   Clear
5:55 PM 41.9 °F 35.0 °F 26.2 °F 54% 29.76 in 10.0 mi SE 12.7 mph - N/A   Clear
6:15 PM 41.0 °F 33.9 °F 26.1 °F 55% 29.76 in 10.0 mi SE 12.7 mph - N/A   Clear
6:35 PM 39.6 °F 31.3 °F 26.2 °F 59% 29.76 in 10.0 mi SE 15.0 mph - N/A   Clear
6:55 PM 38.8 °F 31.6 °F 26.1 °F 60% 29.74 in 10.0 mi SE 11.5 mph - N/A   Clear
7:15 PM 38.7 °F 30.9 °F 26.1 °F 61% 29.74 in 10.0 mi SE 12.7 mph - N/A   Clear
7:35 PM 39.0 °F 31.4 °F 25.9 °F 59% 29.73 in 10.0 mi SE 12.7 mph - N/A   Clear
7:55 PM 38.8 °F 30.4 °F 26.1 °F 60% 29.73 in 10.0 mi SE 15.0 mph - N/A   Clear
8:15 PM 38.3 °F 30.1 °F 26.1 °F 61% 29.72 in 10.0 mi SE 13.8 mph 19.6 mph N/A   Clear
8:35 PM 37.2 °F 29.1 °F 26.2 °F 65% 29.72 in 10.0 mi SE 12.7 mph - N/A   Clear
8:55 PM 36.3 °F 28.0 °F 26.2 °F 67% 29.72 in 10.0 mi SE 12.7 mph - N/A   Clear
9:15 PM 36.0 °F 28.0 °F 26.2 °F 68% 29.72 in 10.0 mi SE 11.5 mph - N/A   Clear
9:35 PM 35.6 °F 28.0 °F 26.2 °F 69% 29.72 in 10.0 mi SE 10.4 mph - N/A   Clear
9:55 PM 35.6 °F 28.0 °F 26.2 °F 69% 29.71 in 10.0 mi SE 10.4 mph - N/A   Clear
10:15 PM 36.9 °F 28.2 °F 26.1 °F 65% 29.69 in 10.0 mi SSE 13.8 mph - N/A   Clear
10:35 PM 37.6 °F 29.1 °F 25.9 °F 63% 29.68 in 10.0 mi SSE 13.8 mph - N/A   Clear
10:55 PM 37.6 °F 28.4 °F 26.1 °F 63% 29.68 in 10.0 mi SE 16.1 mph - N/A   Clear
11:15 PM 37.9 °F 28.9 °F 26.1 °F 62% 29.67 in 10.0 mi SSE 16.1 mph - N/A   Clear
11:35 PM 37.8 °F 29.0 °F 26.4 °F 64% 29.66 in 10.0 mi SSE 15.0 mph - N/A   Clear
11:55 PM 37.9 °F 29.2 °F 26.6 °F 64% 29.65 in 10.0 mi SE 15.0 mph 20.7 mph N/A   Clear